createdAt,value
2022-09-26T00:01:47.642Z,6.7
2022-09-26T00:04:47.570Z,6.7
2022-09-26T00:07:47.569Z,6.8
2022-09-26T00:10:47.586Z,6.9
2022-09-26T00:13:47.599Z,7
2022-09-26T00:16:47.662Z,7
2022-09-26T00:19:47.615Z,6.9
2022-09-26T00:22:47.620Z,6.9
2022-09-26T00:25:47.626Z,6.8
2022-09-26T00:28:47.630Z,6.8
2022-09-26T00:31:47.676Z,6.7
2022-09-26T00:34:47.682Z,6.7
2022-09-26T00:37:47.667Z,6.8
2022-09-26T00:40:47.747Z,6.8
2022-09-26T00:43:47.689Z,6.9
2022-09-26T00:46:47.696Z,6.9
2022-09-26T00:49:47.705Z,7
2022-09-26T00:52:47.744Z,7.1
2022-09-26T00:55:47.729Z,7.2
2022-09-26T00:58:47.732Z,7.3
2022-09-26T01:01:47.892Z,7.4
2022-09-26T01:04:47.758Z,7.5
2022-09-26T01:07:47.764Z,7.6
2022-09-26T01:10:47.880Z,7.6
2022-09-26T01:13:47.789Z,7.6
2022-09-26T01:16:47.980Z,7.7
2022-09-26T01:19:47.844Z,7.7
2022-09-26T01:22:47.820Z,7.8
2022-09-26T01:25:47.829Z,7.9
2022-09-26T01:28:47.862Z,7.9
2022-09-26T01:31:47.859Z,8
2022-09-26T01:34:47.872Z,8
2022-09-26T01:37:47.883Z,8.1
2022-09-26T01:40:47.915Z,8.1
2022-09-26T01:43:47.900Z,8.1
2022-09-26T01:46:47.938Z,8.2
2022-09-26T01:49:47.928Z,8.2
2022-09-26T01:52:47.928Z,8.2
2022-09-26T01:55:47.949Z,8.2
2022-09-26T01:58:47.957Z,8.1
2022-09-26T02:01:48.022Z,8.2
2022-09-26T02:04:48.005Z,8.2
2022-09-26T02:07:47.997Z,8.1
2022-09-26T02:10:48.013Z,8.1
2022-09-26T02:13:48.025Z,8.1
2022-09-26T02:16:48.150Z,8.1
2022-09-26T02:19:48.044Z,8.1
2022-09-26T02:22:48.088Z,8.1
2022-09-26T02:25:48.073Z,8
2022-09-26T02:28:48.079Z,8
2022-09-26T02:31:48.151Z,8
2022-09-26T02:34:48.098Z,8
2022-09-26T02:37:48.105Z,8
2022-09-26T02:40:48.213Z,8.1
2022-09-26T02:43:48.131Z,8.1
2022-09-26T02:46:48.131Z,8.1
2022-09-26T02:49:48.143Z,8.1
2022-09-26T02:52:48.156Z,8.2
2022-09-26T02:55:48.156Z,8.3
2022-09-26T02:58:48.207Z,8.3
2022-09-26T03:01:48.186Z,8.4
2022-09-26T03:04:48.286Z,8.4
2022-09-26T03:07:48.216Z,8.4
2022-09-26T03:10:48.216Z,8.4
2022-09-26T03:13:48.386Z,8.4
2022-09-26T03:16:48.445Z,8.5
2022-09-26T03:19:48.256Z,8.6
2022-09-26T03:22:48.261Z,8.6
2022-09-26T03:25:48.271Z,8.6
2022-09-26T03:28:48.283Z,8.6
2022-09-26T03:31:48.326Z,8.7
2022-09-26T03:34:48.327Z,8.7
2022-09-26T03:37:48.304Z,8.7
2022-09-26T03:40:48.370Z,8.7
2022-09-26T03:43:48.326Z,8.7
2022-09-26T03:46:48.330Z,8.8
2022-09-26T03:49:48.356Z,8.8
2022-09-26T03:52:48.388Z,8.8
2022-09-26T03:55:48.375Z,8.8
2022-09-26T03:58:48.391Z,8.9
2022-09-26T04:01:48.421Z,8.9
2022-09-26T04:04:48.420Z,8.9
2022-09-26T04:07:48.434Z,8.9
2022-09-26T04:10:48.570Z,8.9
2022-09-26T04:13:53.145Z,8.9
2022-09-26T04:16:48.531Z,8.9
2022-09-26T04:19:48.482Z,8.9
2022-09-26T04:22:48.490Z,8.9
2022-09-26T04:25:48.500Z,8.9
2022-09-26T04:28:48.542Z,9
2022-09-26T04:31:48.556Z,9
2022-09-26T04:34:48.533Z,8.9
2022-09-26T04:37:48.547Z,8.9
2022-09-26T04:40:48.638Z,8.9
2022-09-26T04:43:48.569Z,9
2022-09-26T04:46:48.706Z,9
2022-09-26T04:49:48.592Z,9
2022-09-26T04:52:48.612Z,9
2022-09-26T04:55:48.624Z,9
2022-09-26T04:58:48.643Z,9
2022-09-26T05:01:48.729Z,9
2022-09-26T05:04:48.696Z,9
2022-09-26T05:07:48.688Z,9
2022-09-26T05:10:48.699Z,9.1
2022-09-26T05:13:53.107Z,9.1
2022-09-26T05:16:48.745Z,9.1
2022-09-26T05:19:48.735Z,9.1
2022-09-26T05:22:48.765Z,9.2
2022-09-26T05:25:48.760Z,9.2
2022-09-26T05:28:48.781Z,9.2
2022-09-26T05:31:48.849Z,9.3
2022-09-26T05:34:48.805Z,9.3
2022-09-26T05:37:48.815Z,9.3
2022-09-26T05:40:48.893Z,9.4
2022-09-26T05:43:48.850Z,9.4
2022-09-26T05:46:49.032Z,9.5
2022-09-26T05:49:48.883Z,9.6
2022-09-26T05:52:49.091Z,9.6
2022-09-26T05:55:48.908Z,9.7
2022-09-26T05:58:48.943Z,9.7
2022-09-26T06:01:48.963Z,9.8
2022-09-26T06:04:48.945Z,9.9
2022-09-26T06:07:48.957Z,10
2022-09-26T06:10:48.963Z,10.1
2022-09-26T06:13:48.975Z,10.1
2022-09-26T06:16:49.094Z,10.2
2022-09-26T06:19:49.003Z,10.4
2022-09-26T06:22:49.019Z,10.4
2022-09-26T06:25:49.027Z,10.5
2022-09-26T06:28:49.041Z,10.7
2022-09-26T06:31:49.096Z,10.8
2022-09-26T06:34:49.099Z,10.9
2022-09-26T06:37:49.082Z,11
2022-09-26T06:40:49.143Z,11.1
2022-09-26T06:43:49.129Z,11.2
2022-09-26T06:46:49.187Z,11.3
2022-09-26T06:49:49.152Z,11.4
2022-09-26T06:52:49.216Z,11.5
2022-09-26T06:55:49.179Z,11.6
2022-09-26T06:58:49.190Z,11.7
2022-09-26T07:01:49.291Z,11.8
2022-09-26T07:04:49.548Z,11.9
2022-09-26T07:07:49.229Z,12
2022-09-26T07:10:49.349Z,12.1
2022-09-26T07:13:49.253Z,12.2
2022-09-26T07:16:49.270Z,12.3
2022-09-26T07:19:49.285Z,12.6
2022-09-26T07:22:49.292Z,12.7
2022-09-26T07:25:49.302Z,12.9
2022-09-26T07:28:53.805Z,13.1
2022-09-26T07:31:49.378Z,13.2
2022-09-26T07:34:49.358Z,13.4
2022-09-26T07:37:49.372Z,13.4
2022-09-26T07:40:49.444Z,13.4
2022-09-26T07:44:53.220Z,13.5
2022-09-26T07:46:49.486Z,13.5
2022-09-26T07:49:49.423Z,13.5
2022-09-26T07:52:49.436Z,13.5
2022-09-26T07:55:49.448Z,13.6
2022-09-26T07:58:49.468Z,13.6
2022-09-26T08:01:49.646Z,13.6
2022-09-26T08:04:49.555Z,13.7
2022-09-26T08:07:49.509Z,13.7
2022-09-26T08:10:49.520Z,13.9
2022-09-26T08:13:49.531Z,14.2
2022-09-26T08:16:49.540Z,14.5
2022-09-26T08:19:49.556Z,14.7
2022-09-26T08:22:49.607Z,14.8
2022-09-26T08:25:49.588Z,15.2
2022-09-26T08:28:49.608Z,15.8
2022-09-26T08:31:49.656Z,16.3
2022-09-26T08:34:49.637Z,16.4
2022-09-26T08:37:49.657Z,16.3
2022-09-26T08:40:49.769Z,16.4
2022-09-26T08:43:49.674Z,16.6
2022-09-26T08:46:49.813Z,16.6
2022-09-26T08:49:49.699Z,16.6
2022-09-26T08:52:49.724Z,16.4
2022-09-26T08:55:49.723Z,16.2
2022-09-26T08:58:49.762Z,16
2022-09-26T09:01:49.858Z,15.9
2022-09-26T09:04:53.741Z,16.3
2022-09-26T09:07:49.794Z,16.3
2022-09-26T09:10:49.788Z,16.1
2022-09-26T09:13:49.809Z,15.7
2022-09-26T09:16:49.840Z,15.5
2022-09-26T09:19:49.831Z,15.8
2022-09-26T09:22:49.862Z,15.9
2022-09-26T09:25:50.020Z,15.9
2022-09-26T09:28:49.956Z,16
2022-09-26T09:31:49.888Z,16.1
2022-09-26T09:34:53.610Z,16.2
2022-09-26T09:37:49.930Z,16.3
2022-09-26T09:40:49.957Z,16.6
2022-09-26T09:43:49.940Z,16.9
2022-09-26T09:46:50.023Z,17.6
2022-09-26T09:49:49.961Z,18
2022-09-26T09:52:50.013Z,17.7
2022-09-26T09:55:49.993Z,17.5
2022-09-26T09:58:50.020Z,17.5
2022-09-26T10:01:50.017Z,17.6
2022-09-26T10:04:50.034Z,17.9
2022-09-26T10:07:50.049Z,17.8
2022-09-26T10:10:50.077Z,17.7
2022-09-26T10:13:50.070Z,18.2
2022-09-26T10:16:50.112Z,18.5
2022-09-26T10:19:50.091Z,18.7
2022-09-26T10:22:50.116Z,18.8
2022-09-26T10:25:50.099Z,18.7
2022-09-26T10:28:50.141Z,18.4
2022-09-26T10:31:50.191Z,18.2
2022-09-26T10:34:50.136Z,18
2022-09-26T10:37:50.156Z,17.8
2022-09-26T10:40:50.179Z,17.6
2022-09-26T10:43:50.166Z,17.6
2022-09-26T10:46:50.297Z,17.6
2022-09-26T10:49:50.188Z,17.5
2022-09-26T10:52:50.206Z,17
2022-09-26T10:55:50.206Z,16.6
2022-09-26T10:58:50.217Z,16.4
2022-09-26T11:01:50.264Z,16.4
2022-09-26T11:04:50.261Z,16.4
2022-09-26T11:07:50.274Z,16.3
2022-09-26T11:10:50.255Z,16.4
2022-09-26T11:13:50.261Z,16.5
2022-09-26T11:16:50.276Z,16.4
2022-09-26T11:19:54.605Z,16.4
2022-09-26T11:22:50.498Z,16.5
2022-09-26T11:25:53.339Z,16.4
2022-09-26T11:28:50.305Z,16.6
2022-09-26T11:31:50.312Z,16.6
2022-09-26T11:34:50.321Z,16.6
2022-09-26T11:37:50.338Z,16.6
2022-09-26T11:40:50.471Z,16.7
2022-09-26T11:43:50.349Z,16.9
2022-09-26T11:46:50.438Z,17
2022-09-26T11:49:50.362Z,17.1
2022-09-26T11:52:50.379Z,17.3
2022-09-26T11:55:50.384Z,17.6
2022-09-26T11:58:50.412Z,17.6
2022-09-26T12:01:50.399Z,17.4
2022-09-26T12:04:50.405Z,17.3
2022-09-26T12:07:50.425Z,17.2
2022-09-26T12:10:50.419Z,16.9
2022-09-26T12:13:50.426Z,16.9
2022-09-26T12:16:50.550Z,16.9
2022-09-26T12:19:50.459Z,17
2022-09-26T12:22:50.470Z,17.2
2022-09-26T12:25:50.470Z,17.4
2022-09-26T12:28:50.470Z,17.4
2022-09-26T12:31:50.629Z,17.6
2022-09-26T12:34:50.513Z,17.7
2022-09-26T12:37:50.513Z,17.6
2022-09-26T12:40:50.551Z,17.5
2022-09-26T12:43:50.515Z,17.5
2022-09-26T12:46:50.613Z,17.3
2022-09-26T12:49:50.531Z,17.2
2022-09-26T12:52:50.575Z,16.9
2022-09-26T12:55:50.540Z,16.8
2022-09-26T12:58:50.552Z,16.9
2022-09-26T13:01:50.645Z,16.9
2022-09-26T13:04:50.568Z,17
2022-09-26T13:07:50.579Z,16.9
2022-09-26T13:10:50.607Z,16.8
2022-09-26T13:13:50.585Z,16.5
2022-09-26T13:16:50.593Z,16.2
2022-09-26T13:19:50.601Z,16.1
2022-09-26T13:22:50.617Z,15.9
2022-09-26T13:25:50.611Z,15.7
2022-09-26T13:29:06.725Z,15.6
2022-09-26T13:31:50.750Z,15.4
2022-09-26T13:34:50.637Z,15.3
2022-09-26T13:37:50.648Z,15.2
2022-09-26T13:40:50.736Z,15.2
2022-09-26T13:43:50.656Z,15.2
2022-09-26T13:46:50.773Z,15.2
2022-09-26T13:49:50.667Z,15.4
2022-09-26T13:52:50.796Z,15.4
2022-09-26T13:55:50.678Z,15.4
2022-09-26T13:58:50.680Z,15.4
2022-09-26T14:01:50.735Z,15.3
2022-09-26T14:04:50.756Z,15.2
2022-09-26T14:07:50.710Z,15.2
2022-09-26T14:10:50.705Z,15.1
2022-09-26T14:13:50.711Z,15
2022-09-26T14:16:50.720Z,15
2022-09-26T14:19:50.725Z,15
2022-09-26T14:22:50.759Z,15
2022-09-26T14:25:50.729Z,15
2022-09-26T14:28:50.735Z,15
2022-09-26T14:31:50.736Z,14.9
2022-09-26T14:34:50.741Z,14.9
2022-09-26T14:37:50.752Z,14.8
2022-09-26T14:40:50.831Z,14.7
2022-09-26T14:43:50.753Z,14.7
2022-09-26T14:46:50.847Z,14.6
2022-09-26T14:49:50.761Z,14.6
2022-09-26T14:52:50.776Z,14.6
2022-09-26T14:55:50.766Z,14.6
2022-09-26T14:58:50.793Z,14.6
2022-09-26T15:01:50.801Z,14.6
2022-09-26T15:04:50.771Z,14.5
2022-09-26T15:07:50.790Z,14.4
2022-09-26T15:10:50.784Z,14.4
2022-09-26T15:13:50.781Z,14.3
2022-09-26T15:16:50.806Z,14.2
2022-09-26T15:19:50.788Z,14.1
2022-09-26T15:22:50.796Z,14.1
2022-09-26T15:25:50.792Z,14
2022-09-26T15:28:50.797Z,13.9
2022-09-26T15:31:50.791Z,13.9
2022-09-26T15:34:50.823Z,13.8
2022-09-26T15:37:50.808Z,13.8
2022-09-26T15:40:50.863Z,13.7
2022-09-26T15:43:50.804Z,13.7
2022-09-26T15:46:50.894Z,13.7
2022-09-26T15:49:50.810Z,13.8
2022-09-26T15:52:50.875Z,13.7
2022-09-26T15:55:50.845Z,13.7
2022-09-26T15:58:50.865Z,13.7
2022-09-26T16:01:50.909Z,13.7
2022-09-26T16:04:50.890Z,13.6
2022-09-26T16:07:50.913Z,13.7
2022-09-26T16:10:50.937Z,13.7
2022-09-26T16:13:50.942Z,13.7
2022-09-26T16:16:50.961Z,13.7
2022-09-26T16:19:50.984Z,13.7
2022-09-26T16:22:51.009Z,13.7
2022-09-26T16:25:51.003Z,13.7
2022-09-26T16:28:51.053Z,13.8
2022-09-26T16:31:51.047Z,13.8
2022-09-26T16:34:51.065Z,13.7
2022-09-26T16:37:51.093Z,13.7
2022-09-26T16:40:51.158Z,13.7
2022-09-26T16:43:51.116Z,13.6
2022-09-26T16:46:51.201Z,13.6
2022-09-26T16:49:51.159Z,13.6
2022-09-26T16:52:51.284Z,13.5
2022-09-26T16:55:51.193Z,13.5
2022-09-26T16:58:51.205Z,13.4
2022-09-26T17:01:51.445Z,13.4
2022-09-26T17:04:51.273Z,13.4
2022-09-26T17:07:51.302Z,13.3
2022-09-26T17:10:51.297Z,13.3
2022-09-26T17:13:51.303Z,13.3
2022-09-26T17:16:51.314Z,13.2
2022-09-26T17:19:54.225Z,13.2
2022-09-26T17:22:51.411Z,13.1
2022-09-26T17:25:55.423Z,13.1
2022-09-26T17:28:51.392Z,13.1
2022-09-26T17:31:51.410Z,13.1
2022-09-26T17:34:51.434Z,13
2022-09-26T17:37:51.443Z,13.1
2022-09-26T17:40:51.527Z,13
2022-09-26T17:43:51.455Z,13
2022-09-26T17:46:51.510Z,12.9
2022-09-26T17:49:51.460Z,12.9
2022-09-26T17:52:51.473Z,12.9
2022-09-26T17:55:51.485Z,12.9
2022-09-26T17:58:51.532Z,12.8
2022-09-26T18:01:51.558Z,12.8
2022-09-26T18:04:51.545Z,12.8
2022-09-26T18:07:51.565Z,12.8
2022-09-26T18:10:51.565Z,12.8
2022-09-26T18:13:51.587Z,12.8
2022-09-26T18:16:51.628Z,12.8
2022-09-26T18:19:51.617Z,12.8
2022-09-26T18:22:51.645Z,12.8
2022-09-26T18:25:51.643Z,12.9
2022-09-26T18:28:51.654Z,12.9
2022-09-26T18:31:51.673Z,12.9
2022-09-26T18:34:51.706Z,12.8
2022-09-26T18:37:51.715Z,12.8
2022-09-26T18:40:51.828Z,12.8
2022-09-26T18:43:51.713Z,12.8
2022-09-26T18:46:51.745Z,12.8
2022-09-26T18:49:51.756Z,12.8
2022-09-26T18:52:51.816Z,12.8
2022-09-26T18:55:51.774Z,12.8
2022-09-26T18:58:51.783Z,12.8
2022-09-26T19:01:51.894Z,12.8
2022-09-26T19:04:51.793Z,12.8
2022-09-26T19:07:51.801Z,12.8
2022-09-26T19:10:51.821Z,12.7
2022-09-26T19:13:51.804Z,12.8
2022-09-26T19:16:51.801Z,12.8
2022-09-26T19:19:51.798Z,12.7
2022-09-26T19:22:51.853Z,12.7
2022-09-26T19:25:51.810Z,12.7
2022-09-26T19:28:51.838Z,12.7
2022-09-26T19:31:51.808Z,12.7
2022-09-26T19:34:51.813Z,12.7
2022-09-26T19:37:51.822Z,12.6
2022-09-26T19:40:51.855Z,12.5
2022-09-26T19:43:51.815Z,12.5
2022-09-26T19:46:51.838Z,12.4
2022-09-26T19:49:51.820Z,12.3
2022-09-26T19:52:51.824Z,12.2
2022-09-26T19:55:51.832Z,12.1
2022-09-26T19:58:51.825Z,12.1
2022-09-26T20:01:51.869Z,12
2022-09-26T20:04:51.851Z,12
2022-09-26T20:07:51.848Z,12
2022-09-26T20:10:51.833Z,12
2022-09-26T20:13:51.831Z,12
2022-09-26T20:16:51.883Z,12
2022-09-26T20:19:55.214Z,12
2022-09-26T20:22:51.877Z,12
2022-09-26T20:25:51.845Z,12.1
2022-09-26T20:28:51.844Z,12.1
2022-09-26T20:31:51.850Z,12.2
2022-09-26T20:34:51.850Z,12.1
2022-09-26T20:37:51.865Z,12.1
2022-09-26T20:40:51.930Z,12.1
2022-09-26T20:43:51.854Z,12.1
2022-09-26T20:46:51.870Z,12.1
2022-09-26T20:49:51.859Z,12
2022-09-26T20:52:51.870Z,12
2022-09-26T20:55:51.853Z,12
2022-09-26T20:58:51.886Z,12
2022-09-26T21:01:51.926Z,12
2022-09-26T21:04:51.865Z,12
2022-09-26T21:07:51.876Z,11.9
2022-09-26T21:10:51.866Z,11.9
2022-09-26T21:13:51.870Z,11.9
2022-09-26T21:16:51.976Z,11.9
2022-09-26T21:19:51.873Z,11.8
2022-09-26T21:22:51.877Z,11.8
2022-09-26T21:25:51.866Z,11.8
2022-09-26T21:28:51.869Z,11.8
2022-09-26T21:31:51.869Z,11.7
2022-09-26T21:34:51.896Z,11.7
2022-09-26T21:37:51.887Z,11.7
2022-09-26T21:40:51.954Z,11.6
2022-09-26T21:43:51.873Z,11.6
2022-09-26T21:46:51.881Z,11.5
2022-09-26T21:49:51.879Z,11.5
2022-09-26T21:52:51.916Z,11.5
2022-09-26T21:55:51.881Z,11.5
2022-09-26T21:58:51.875Z,11.5
2022-09-26T22:01:51.948Z,11.5
2022-09-26T22:04:51.885Z,11.5
2022-09-26T22:07:51.908Z,11.4
2022-09-26T22:10:51.917Z,11.4
2022-09-26T22:13:51.887Z,11.4
2022-09-26T22:16:51.996Z,11.4
2022-09-26T22:19:51.890Z,11.3
2022-09-26T22:22:51.906Z,11.3
2022-09-26T22:25:51.915Z,11.3
2022-09-26T22:28:51.933Z,11.3
2022-09-26T22:31:51.909Z,11.4
2022-09-26T22:34:51.907Z,11.3
2022-09-26T22:37:51.992Z,11.4
2022-09-26T22:40:51.942Z,11.4
2022-09-26T22:43:51.909Z,11.4
2022-09-26T22:46:51.944Z,11.4
2022-09-26T22:49:51.928Z,11.4
2022-09-26T22:52:51.948Z,11.5
2022-09-26T22:55:51.914Z,11.6
2022-09-26T22:58:51.919Z,11.6
2022-09-26T23:01:51.973Z,11.7
2022-09-26T23:04:51.949Z,11.7
2022-09-26T23:07:51.936Z,11.7
2022-09-26T23:10:51.924Z,11.7
2022-09-26T23:13:51.931Z,11.7
2022-09-26T23:16:51.964Z,11.7
2022-09-26T23:19:51.931Z,11.6
2022-09-26T23:22:51.973Z,11.6
2022-09-26T23:25:51.936Z,11.4
2022-09-26T23:28:51.940Z,11.3
2022-09-26T23:31:51.943Z,11.2
2022-09-26T23:34:51.949Z,11.1
2022-09-26T23:37:51.966Z,11
2022-09-26T23:40:52.120Z,10.9
2022-09-26T23:43:51.962Z,10.9
2022-09-26T23:46:51.959Z,10.9
2022-09-26T23:49:51.965Z,10.8
2022-09-26T23:52:51.969Z,10.8
2022-09-26T23:55:51.962Z,10.7
2022-09-26T23:58:52.007Z,10.7
